sensor_id;sensor_type;location;lat;lon;timestamp;pressure;altitude;pressure_sealevel;temperature;humidity
51526;BME280;37611;51.794;21.590;2023-02-19T00:03:08;99406.36;;;2.34;100.00
51526;BME280;37611;51.794;21.590;2023-02-19T00:07:09;99419.46;;;2.25;100.00
51526;BME280;37611;51.794;21.590;2023-02-19T00:11:17;99411.06;;;2.22;100.00
51526;BME280;37611;51.794;21.590;2023-02-19T00:15:19;99419.41;;;2.16;100.00
51526;BME280;37611;51.794;21.590;2023-02-19T00:19:20;99424.67;;;2.10;100.00
51526;BME280;37611;51.794;21.590;2023-02-19T00:23:22;99417.85;;;2.02;100.00
51526;BME280;37611;51.794;21.590;2023-02-19T00:27:24;99416.84;;;1.95;100.00
51526;BME280;37611;51.794;21.590;2023-02-19T00:31:28;99416.55;;;1.82;100.00
51526;BME280;37611;51.794;21.590;2023-02-19T00:35:33;99408.73;;;1.73;100.00
51526;BME280;37611;51.794;21.590;2023-02-19T00:39:35;99402.61;;;1.62;100.00
51526;BME280;37611;51.794;21.590;2023-02-19T00:43:36;99410.10;;;1.54;100.00
51526;BME280;37611;51.794;21.590;2023-02-19T00:47:38;99411.41;;;1.50;100.00
51526;BME280;37611;51.794;21.590;2023-02-19T00:51:40;99416.05;;;1.43;100.00
51526;BME280;37611;51.794;21.590;2023-02-19T00:55:42;99409.49;;;1.39;100.00
51526;BME280;37611;51.794;21.590;2023-02-19T00:59:43;99394.91;;;1.37;100.00
51526;BME280;37611;51.794;21.590;2023-02-19T01:03:46;99390.08;;;1.37;100.00
51526;BME280;37611;51.794;21.590;2023-02-19T01:07:47;99392.02;;;1.37;100.00
51526;BME280;37611;51.794;21.590;2023-02-19T01:11:49;99394.40;;;1.35;100.00
51526;BME280;37611;51.794;21.590;2023-02-19T01:15:51;99394.52;;;1.35;100.00
51526;BME280;37611;51.794;21.590;2023-02-19T01:19:52;99398.25;;;1.34;100.00
51526;BME280;37611;51.794;21.590;2023-02-19T01:23:55;99399.96;;;1.37;100.00
51526;BME280;37611;51.794;21.590;2023-02-19T01:27:56;99406.16;;;1.39;100.00
51526;BME280;37611;51.794;21.590;2023-02-19T01:31:58;99404.32;;;1.43;100.00
51526;BME280;37611;51.794;21.590;2023-02-19T01:36:02;99397.45;;;1.52;100.00
51526;BME280;37611;51.794;21.590;2023-02-19T01:40:04;99397.91;;;1.58;100.00
51526;BME280;37611;51.794;21.590;2023-02-19T01:48:34;99392.90;;;1.68;100.00
51526;BME280;37611;51.794;21.590;2023-02-19T01:52:38;99399.17;;;1.72;100.00
51526;BME280;37611;51.794;21.590;2023-02-19T01:56:41;99398.13;;;1.74;100.00
51526;BME280;37611;51.794;21.590;2023-02-19T02:00:43;99400.66;;;1.80;100.00
51526;BME280;37611;51.794;21.590;2023-02-19T02:04:45;99400.20;;;1.81;100.00
51526;BME280;37611;51.794;21.590;2023-02-19T02:08:49;99401.29;;;1.86;100.00
51526;BME280;37611;51.794;21.590;2023-02-19T02:13:10;99404.55;;;1.88;100.00
51526;BME280;37611;51.794;21.590;2023-02-19T02:17:25;99402.62;;;1.91;100.00
51526;BME280;37611;51.794;21.590;2023-02-19T02:21:42;99405.03;;;1.93;100.00
51526;BME280;37611;51.794;21.590;2023-02-19T02:26:16;99407.13;;;1.98;100.00
51526;BME280;37611;51.794;21.590;2023-02-19T02:35:04;99411.13;;;2.02;100.00
51526;BME280;37611;51.794;21.590;2023-02-19T02:39:12;99404.90;;;2.05;100.00
51526;BME280;37611;51.794;21.590;2023-02-19T02:43:14;99401.98;;;2.07;100.00
51526;BME280;37611;51.794;21.590;2023-02-19T02:47:16;99400.33;;;2.11;100.00
51526;BME280;37611;51.794;21.590;2023-02-19T02:51:40;99398.91;;;2.11;100.00
51526;BME280;37611;51.794;21.590;2023-02-19T02:55:47;99404.62;;;2.13;100.00
51526;BME280;37611;51.794;21.590;2023-02-19T02:59:50;99398.88;;;2.14;100.00
51526;BME280;37611;51.794;21.590;2023-02-19T03:03:59;99401.13;;;2.14;100.00
51526;BME280;37611;51.794;21.590;2023-02-19T03:08:09;99396.73;;;2.12;100.00
51526;BME280;37611;51.794;21.590;2023-02-19T03:12:14;99387.46;;;2.12;100.00
51526;BME280;37611;51.794;21.590;2023-02-19T03:16:37;99385.06;;;2.11;100.00
51526;BME280;37611;51.794;21.590;2023-02-19T03:20:59;99379.57;;;2.13;100.00
51526;BME280;37611;51.794;21.590;2023-02-19T03:25:12;99371.14;;;2.13;100.00
51526;BME280;37611;51.794;21.590;2023-02-19T03:29:34;99365.34;;;2.14;100.00
51526;BME280;37611;51.794;21.590;2023-02-19T03:33:38;99362.13;;;2.15;100.00
51526;BME280;37611;51.794;21.590;2023-02-19T03:37:52;99365.95;;;2.13;100.00
51526;BME280;37611;51.794;21.590;2023-02-19T03:42:04;99373.23;;;2.10;100.00
51526;BME280;37611;51.794;21.590;2023-02-19T03:46:12;99379.95;;;2.06;100.00
51526;BME280;37611;51.794;21.590;2023-02-19T03:50:37;99385.64;;;2.08;100.00
51526;BME280;37611;51.794;21.590;2023-02-19T03:55:02;99378.95;;;2.08;100.00
51526;BME280;37611;51.794;21.590;2023-02-19T03:59:12;99380.31;;;2.08;100.00
51526;BME280;37611;51.794;21.590;2023-02-19T04:07:31;99374.06;;;2.08;100.00
51526;BME280;37611;51.794;21.590;2023-02-19T04:11:36;99364.19;;;2.13;100.00
51526;BME280;37611;51.794;21.590;2023-02-19T04:15:40;99367.98;;;2.16;100.00
51526;BME280;37611;51.794;21.590;2023-02-19T04:19:45;99361.75;;;2.13;100.00
51526;BME280;37611;51.794;21.590;2023-02-19T04:23:49;99354.46;;;2.09;100.00
51526;BME280;37611;51.794;21.590;2023-02-19T04:27:51;99358.19;;;2.08;100.00
51526;BME280;37611;51.794;21.590;2023-02-19T04:31:53;99349.98;;;2.09;100.00
51526;BME280;37611;51.794;21.590;2023-02-19T04:35:55;99342.88;;;2.07;100.00
51526;BME280;37611;51.794;21.590;2023-02-19T04:39:57;99340.88;;;2.04;100.00
51526;BME280;37611;51.794;21.590;2023-02-19T04:43:58;99341.58;;;2.04;100.00
51526;BME280;37611;51.794;21.590;2023-02-19T04:48:00;99346.73;;;2.04;100.00
51526;BME280;37611;51.794;21.590;2023-02-19T04:52:02;99343.39;;;2.05;100.00
51526;BME280;37611;51.794;21.590;2023-02-19T04:56:12;99337.17;;;2.03;100.00
51526;BME280;37611;51.794;21.590;2023-02-19T05:00:15;99329.74;;;2.03;100.00
51526;BME280;37611;51.794;21.590;2023-02-19T05:04:16;99328.03;;;2.05;100.00
51526;BME280;37611;51.794;21.590;2023-02-19T05:08:18;99330.64;;;2.05;100.00
51526;BME280;37611;51.794;21.590;2023-02-19T05:12:20;99325.80;;;2.05;100.00
51526;BME280;37611;51.794;21.590;2023-02-19T05:16:22;99326.92;;;2.06;100.00
51526;BME280;37611;51.794;21.590;2023-02-19T05:20:23;99325.71;;;2.04;100.00
51526;BME280;37611;51.794;21.590;2023-02-19T05:24:25;99325.85;;;2.02;100.00
51526;BME280;37611;51.794;21.590;2023-02-19T05:28:28;99321.35;;;1.97;100.00
51526;BME280;37611;51.794;21.590;2023-02-19T05:32:29;99325.02;;;1.94;100.00
51526;BME280;37611;51.794;21.590;2023-02-19T05:36:31;99321.90;;;1.94;100.00
51526;BME280;37611;51.794;21.590;2023-02-19T05:40:33;99316.89;;;1.94;100.00
51526;BME280;37611;51.794;21.590;2023-02-19T05:44:35;99313.30;;;1.99;100.00
51526;BME280;37611;51.794;21.590;2023-02-19T05:48:37;99308.86;;;1.98;100.00
51526;BME280;37611;51.794;21.590;2023-02-19T05:52:39;99303.86;;;2.00;100.00
51526;BME280;37611;51.794;21.590;2023-02-19T05:56:41;99298.70;;;2.05;100.00
51526;BME280;37611;51.794;21.590;2023-02-19T06:00:43;99296.75;;;2.08;100.00
51526;BME280;37611;51.794;21.590;2023-02-19T06:04:45;99289.73;;;2.09;100.00
51526;BME280;37611;51.794;21.590;2023-02-19T06:08:48;99288.41;;;2.08;100.00
51526;BME280;37611;51.794;21.590;2023-02-19T06:12:53;99289.99;;;2.05;100.00
51526;BME280;37611;51.794;21.590;2023-02-19T06:16:55;99288.16;;;2.03;100.00
51526;BME280;37611;51.794;21.590;2023-02-19T06:21:04;99292.14;;;2.00;100.00
51526;BME280;37611;51.794;21.590;2023-02-19T06:25:06;99303.37;;;2.00;100.00
51526;BME280;37611;51.794;21.590;2023-02-19T06:29:12;99311.91;;;2.01;100.00
51526;BME280;37611;51.794;21.590;2023-02-19T06:33:14;99310.46;;;2.04;100.00
51526;BME280;37611;51.794;21.590;2023-02-19T06:37:16;99309.55;;;2.07;100.00
51526;BME280;37611;51.794;21.590;2023-02-19T06:41:18;99313.43;;;2.11;100.00
51526;BME280;37611;51.794;21.590;2023-02-19T06:45:20;99320.43;;;2.12;100.00
51526;BME280;37611;51.794;21.590;2023-02-19T06:49:22;99327.42;;;2.11;100.00
51526;BME280;37611;51.794;21.590;2023-02-19T06:53:24;99335.92;;;2.12;100.00
51526;BME280;37611;51.794;21.590;2023-02-19T06:57:26;99335.56;;;2.13;100.00
51526;BME280;37611;51.794;21.590;2023-02-19T07:01:29;99340.77;;;2.17;100.00
51526;BME280;37611;51.794;21.590;2023-02-19T07:05:31;99334.98;;;2.23;100.00
51526;BME280;37611;51.794;21.590;2023-02-19T07:09:32;99334.98;;;2.26;100.00
51526;BME280;37611;51.794;21.590;2023-02-19T07:13:34;99330.55;;;2.36;100.00
51526;BME280;37611;51.794;21.590;2023-02-19T07:17:36;99339.91;;;2.44;100.00
51526;BME280;37611;51.794;21.590;2023-02-19T07:21:38;99345.16;;;2.48;100.00
51526;BME280;37611;51.794;21.590;2023-02-19T07:25:40;99345.14;;;2.53;100.00
51526;BME280;37611;51.794;21.590;2023-02-19T07:29:42;99346.15;;;2.56;100.00
51526;BME280;37611;51.794;21.590;2023-02-19T07:33:45;99354.48;;;2.57;100.00
51526;BME280;37611;51.794;21.590;2023-02-19T07:37:47;99358.69;;;2.54;100.00
51526;BME280;37611;51.794;21.590;2023-02-19T07:41:49;99357.61;;;2.57;100.00
51526;BME280;37611;51.794;21.590;2023-02-19T07:45:51;99356.21;;;2.57;100.00
51526;BME280;37611;51.794;21.590;2023-02-19T07:49:53;99356.63;;;2.61;100.00
51526;BME280;37611;51.794;21.590;2023-02-19T07:53:54;99357.80;;;2.61;100.00
51526;BME280;37611;51.794;21.590;2023-02-19T07:57:57;99360.24;;;2.61;100.00
51526;BME280;37611;51.794;21.590;2023-02-19T08:02:00;99358.17;;;2.66;100.00
51526;BME280;37611;51.794;21.590;2023-02-19T08:06:20;99356.17;;;2.71;100.00
51526;BME280;37611;51.794;21.590;2023-02-19T08:10:22;99355.66;;;2.80;100.00
51526;BME280;37611;51.794;21.590;2023-02-19T08:14:42;99356.62;;;2.81;100.00
51526;BME280;37611;51.794;21.590;2023-02-19T08:18:47;99359.98;;;2.85;100.00
51526;BME280;37611;51.794;21.590;2023-02-19T08:22:49;99360.20;;;2.88;100.00
51526;BME280;37611;51.794;21.590;2023-02-19T08:26:51;99362.65;;;2.86;100.00
51526;BME280;37611;51.794;21.590;2023-02-19T08:30:58;99363.80;;;2.87;100.00
51526;BME280;37611;51.794;21.590;2023-02-19T08:35:01;99368.33;;;2.90;100.00
51526;BME280;37611;51.794;21.590;2023-02-19T08:39:02;99370.71;;;2.93;100.00
51526;BME280;37611;51.794;21.590;2023-02-19T08:43:10;99374.33;;;2.98;100.00
51526;BME280;37611;51.794;21.590;2023-02-19T08:47:12;99374.88;;;3.00;100.00
51526;BME280;37611;51.794;21.590;2023-02-19T08:51:15;99374.85;;;3.07;100.00
51526;BME280;37611;51.794;21.590;2023-02-19T08:55:17;99369.53;;;3.22;100.00
51526;BME280;37611;51.794;21.590;2023-02-19T08:59:19;99367.23;;;3.31;100.00
51526;BME280;37611;51.794;21.590;2023-02-19T09:03:21;99371.37;;;3.40;100.00
51526;BME280;37611;51.794;21.590;2023-02-19T09:07:23;99363.04;;;3.51;100.00
51526;BME280;37611;51.794;21.590;2023-02-19T09:11:24;99359.42;;;3.58;100.00
51526;BME280;37611;51.794;21.590;2023-02-19T09:15:26;99356.89;;;3.59;100.00
51526;BME280;37611;51.794;21.590;2023-02-19T09:19:30;99357.69;;;3.60;100.00
51526;BME280;37611;51.794;21.590;2023-02-19T09:23:33;99359.94;;;3.58;100.00
51526;BME280;37611;51.794;21.590;2023-02-19T09:27:35;99358.63;;;3.70;99.64
51526;BME280;37611;51.794;21.590;2023-02-19T09:31:37;99356.94;;;3.88;99.39
51526;BME280;37611;51.794;21.590;2023-02-19T09:35:39;99355.46;;;3.96;98.32
51526;BME280;37611;51.794;21.590;2023-02-19T09:39:41;99348.00;;;4.04;97.74
51526;BME280;37611;51.794;21.590;2023-02-19T09:43:43;99356.20;;;4.06;97.45
51526;BME280;37611;51.794;21.590;2023-02-19T09:47:45;99360.34;;;4.00;96.42
51526;BME280;37611;51.794;21.590;2023-02-19T09:51:51;99370.92;;;3.91;96.53
51526;BME280;37611;51.794;21.590;2023-02-19T09:55:54;99374.85;;;3.85;96.49
51526;BME280;37611;51.794;21.590;2023-02-19T10:00:18;99371.30;;;3.88;97.70
51526;BME280;37611;51.794;21.590;2023-02-19T10:04:21;99367.48;;;3.95;97.93
51526;BME280;37611;51.794;21.590;2023-02-19T10:08:23;99369.71;;;4.01;97.17
51526;BME280;37611;51.794;21.590;2023-02-19T10:12:28;99371.30;;;4.03;96.49
51526;BME280;37611;51.794;21.590;2023-02-19T10:16:30;99370.74;;;4.06;95.35
51526;BME280;37611;51.794;21.590;2023-02-19T10:20:32;99367.05;;;4.17;96.00
51526;BME280;37611;51.794;21.590;2023-02-19T10:24:35;99360.05;;;4.18;94.73
51526;BME280;37611;51.794;21.590;2023-02-19T10:28:37;99362.89;;;4.17;94.46
51526;BME280;37611;51.794;21.590;2023-02-19T10:33:10;99364.00;;;4.16;94.65
51526;BME280;37611;51.794;21.590;2023-02-19T10:37:15;99366.59;;;4.20;94.43
51526;BME280;37611;51.794;21.590;2023-02-19T10:41:21;99368.98;;;4.29;94.70
51526;BME280;37611;51.794;21.590;2023-02-19T10:45:44;99365.53;;;4.47;94.34
51526;BME280;37611;51.794;21.590;2023-02-19T10:49:52;99366.83;;;4.49;92.09
51526;BME280;37611;51.794;21.590;2023-02-19T10:58:22;99376.10;;;4.46;91.48
51526;BME280;37611;51.794;21.590;2023-02-19T11:02:34;99384.31;;;4.43;92.07
51526;BME280;37611;51.794;21.590;2023-02-19T11:06:36;99386.71;;;4.41;92.42
51526;BME280;37611;51.794;21.590;2023-02-19T11:10:39;99390.75;;;4.43;92.43
51526;BME280;37611;51.794;21.590;2023-02-19T11:14:43;99389.92;;;4.40;92.06
51526;BME280;37611;51.794;21.590;2023-02-19T11:18:55;99394.77;;;4.38;91.65
51526;BME280;37611;51.794;21.590;2023-02-19T11:23:00;99390.43;;;4.36;91.96
51526;BME280;37611;51.794;21.590;2023-02-19T11:27:12;99386.44;;;4.32;89.90
51526;BME280;37611;51.794;21.590;2023-02-19T11:31:28;99400.86;;;4.25;89.88
51526;BME280;37611;51.794;21.590;2023-02-19T11:35:33;99401.85;;;4.22;89.76
51526;BME280;37611;51.794;21.590;2023-02-19T11:39:35;99396.30;;;4.24;90.38
51526;BME280;37611;51.794;21.590;2023-02-19T11:44:00;99398.85;;;4.26;89.74
51526;BME280;37611;51.794;21.590;2023-02-19T11:53:09;99401.02;;;4.40;88.76
51526;BME280;37611;51.794;21.590;2023-02-19T11:57:35;99402.61;;;4.41;85.96
51526;BME280;37611;51.794;21.590;2023-02-19T12:45:48;99430.86;;;6.23;78.56
51526;BME280;37611;51.794;21.590;2023-02-19T12:54:33;99440.03;;;5.88;77.63
51526;BME280;37611;51.794;21.590;2023-02-19T12:59:03;99445.06;;;5.64;77.38
51526;BME280;37611;51.794;21.590;2023-02-19T13:07:23;99454.38;;;5.37;77.31
51526;BME280;37611;51.794;21.590;2023-02-19T13:11:43;99464.48;;;5.32;77.99
51526;BME280;37611;51.794;21.590;2023-02-19T13:15:54;99468.77;;;5.61;77.90
51526;BME280;37611;51.794;21.590;2023-02-19T13:20:12;99470.52;;;5.55;77.04
51526;BME280;37611;51.794;21.590;2023-02-19T13:24:23;99476.65;;;5.35;77.73
51526;BME280;37611;51.794;21.590;2023-02-19T13:28:46;99480.25;;;5.09;77.53
51526;BME280;37611;51.794;21.590;2023-02-19T13:36:58;99481.75;;;5.03;77.69
51526;BME280;37611;51.794;21.590;2023-02-19T13:41:01;99487.05;;;5.30;77.51
51526;BME280;37611;51.794;21.590;2023-02-19T13:45:04;99483.77;;;5.66;76.84
51526;BME280;37611;51.794;21.590;2023-02-19T14:02:42;99505.77;;;5.57;75.40
51526;BME280;37611;51.794;21.590;2023-02-19T14:07:21;99506.62;;;5.48;74.98
51526;BME280;37611;51.794;21.590;2023-02-19T14:20:44;99521.30;;;4.91;76.42
51526;BME280;37611;51.794;21.590;2023-02-19T14:24:46;99528.32;;;4.79;76.49
51526;BME280;37611;51.794;21.590;2023-02-19T14:28:50;99530.28;;;4.60;76.56
51526;BME280;37611;51.794;21.590;2023-02-19T14:32:53;99536.65;;;4.45;77.37
51526;BME280;37611;51.794;21.590;2023-02-19T14:36:57;99543.46;;;4.38;77.62
51526;BME280;37611;51.794;21.590;2023-02-19T14:41:00;99551.29;;;4.25;77.81
51526;BME280;37611;51.794;21.590;2023-02-19T14:45:05;99552.83;;;4.10;77.69
51526;BME280;37611;51.794;21.590;2023-02-19T14:49:18;99559.42;;;4.06;78.69
51526;BME280;37611;51.794;21.590;2023-02-19T14:53:23;99562.20;;;3.99;79.16
51526;BME280;37611;51.794;21.590;2023-02-19T14:57:33;99570.61;;;3.93;79.72
51526;BME280;37611;51.794;21.590;2023-02-19T15:01:37;99571.30;;;3.89;79.80
51526;BME280;37611;51.794;21.590;2023-02-19T15:05:39;99573.02;;;3.83;80.21
51526;BME280;37611;51.794;21.590;2023-02-19T15:09:46;99574.88;;;3.81;80.81
51526;BME280;37611;51.794;21.590;2023-02-19T15:13:50;99573.81;;;3.77;81.16
51526;BME280;37611;51.794;21.590;2023-02-19T15:17:53;99576.61;;;3.72;81.35
51526;BME280;37611;51.794;21.590;2023-02-19T15:21:56;99585.96;;;3.67;81.56
51526;BME280;37611;51.794;21.590;2023-02-19T15:25:58;99589.40;;;3.63;82.06
51526;BME280;37611;51.794;21.590;2023-02-19T15:30:00;99588.48;;;3.62;82.32
51526;BME280;37611;51.794;21.590;2023-02-19T15:34:02;99592.73;;;3.58;82.27
51526;BME280;37611;51.794;21.590;2023-02-19T15:38:04;99596.47;;;3.55;82.59
51526;BME280;37611;51.794;21.590;2023-02-19T15:42:09;99604.98;;;3.52;82.78
51526;BME280;37611;51.794;21.590;2023-02-19T15:46:21;99610.77;;;3.49;83.20
51526;BME280;37611;51.794;21.590;2023-02-19T15:50:35;99617.94;;;3.46;83.69
51526;BME280;37611;51.794;21.590;2023-02-19T15:54:58;99619.06;;;3.42;83.89
51526;BME280;37611;51.794;21.590;2023-02-19T15:59:06;99625.36;;;3.39;84.34
51526;BME280;37611;51.794;21.590;2023-02-19T16:03:17;99631.33;;;3.38;84.54
51526;BME280;37611;51.794;21.590;2023-02-19T16:07:25;99637.91;;;3.38;84.42
51526;BME280;37611;51.794;21.590;2023-02-19T16:11:34;99639.36;;;3.39;84.64
51526;BME280;37611;51.794;21.590;2023-02-19T16:15:37;99647.66;;;3.39;84.80
51526;BME280;37611;51.794;21.590;2023-02-19T16:23:49;99678.66;;;3.41;84.39
51526;BME280;37611;51.794;21.590;2023-02-19T16:27:52;99684.23;;;3.41;83.91
51526;BME280;37611;51.794;21.590;2023-02-19T16:32:00;99689.98;;;3.38;83.45
51526;BME280;37611;51.794;21.590;2023-02-19T16:40:38;99704.66;;;3.29;83.35
51526;BME280;37611;51.794;21.590;2023-02-19T16:44:42;99714.55;;;3.24;83.78
51526;BME280;37611;51.794;21.590;2023-02-19T16:48:45;99720.88;;;3.21;83.34
51526;BME280;37611;51.794;21.590;2023-02-19T16:56:55;99729.87;;;3.16;83.44
51526;BME280;37611;51.794;21.590;2023-02-19T17:00:56;99732.88;;;3.15;83.47
51526;BME280;37611;51.794;21.590;2023-02-19T17:04:59;99738.95;;;3.12;83.16
51526;BME280;37611;51.794;21.590;2023-02-19T17:09:01;99743.37;;;3.11;83.28
51526;BME280;37611;51.794;21.590;2023-02-19T17:13:03;99745.77;;;3.06;83.13
51526;BME280;37611;51.794;21.590;2023-02-19T17:17:05;99750.77;;;3.02;83.29
51526;BME280;37611;51.794;21.590;2023-02-19T17:25:16;99760.95;;;2.83;83.41
51526;BME280;37611;51.794;21.590;2023-02-19T17:29:18;99763.46;;;2.74;83.66
51526;BME280;37611;51.794;21.590;2023-02-19T17:33:20;99771.06;;;2.64;83.54
51526;BME280;37611;51.794;21.590;2023-02-19T17:37:22;99779.11;;;2.53;84.11
51526;BME280;37611;51.794;21.590;2023-02-19T17:41:24;99782.05;;;2.40;84.42
51526;BME280;37611;51.794;21.590;2023-02-19T17:45:26;99789.02;;;2.30;85.09
51526;BME280;37611;51.794;21.590;2023-02-19T17:49:27;99791.80;;;2.22;85.55
51526;BME280;37611;51.794;21.590;2023-02-19T17:53:29;99794.77;;;2.19;86.16
51526;BME280;37611;51.794;21.590;2023-02-19T17:57:31;99803.02;;;2.19;86.76
51526;BME280;37611;51.794;21.590;2023-02-19T18:01:34;99803.39;;;2.21;87.08
51526;BME280;37611;51.794;21.590;2023-02-19T18:05:35;99806.13;;;2.27;87.44
51526;BME280;37611;51.794;21.590;2023-02-19T18:09:37;99812.35;;;2.29;87.39
51526;BME280;37611;51.794;21.590;2023-02-19T18:13:41;99820.55;;;2.31;87.56
51526;BME280;37611;51.794;21.590;2023-02-19T18:17:44;99829.64;;;2.29;87.85
51526;BME280;37611;51.794;21.590;2023-02-19T18:21:47;99833.27;;;2.29;87.64
51526;BME280;37611;51.794;21.590;2023-02-19T18:25:49;99843.52;;;2.29;87.61
51526;BME280;37611;51.794;21.590;2023-02-19T18:29:52;99847.80;;;2.27;88.08
51526;BME280;37611;51.794;21.590;2023-02-19T18:33:54;99857.15;;;2.26;88.10
51526;BME280;37611;51.794;21.590;2023-02-19T18:37:56;99855.96;;;2.26;87.81
51526;BME280;37611;51.794;21.590;2023-02-19T18:41:57;99866.65;;;2.26;87.72
51526;BME280;37611;51.794;21.590;2023-02-19T18:45:59;99869.49;;;2.25;87.72
51526;BME280;37611;51.794;21.590;2023-02-19T18:50:01;99869.88;;;2.22;87.59
51526;BME280;37611;51.794;21.590;2023-02-19T18:54:03;99876.34;;;2.21;87.42
51526;BME280;37611;51.794;21.590;2023-02-19T18:58:05;99872.74;;;2.18;86.98
51526;BME280;37611;51.794;21.590;2023-02-19T19:02:08;99872.55;;;2.13;86.67
51526;BME280;37611;51.794;21.590;2023-02-19T19:06:10;99869.00;;;2.06;86.45
51526;BME280;37611;51.794;21.590;2023-02-19T19:10:12;99870.29;;;2.00;86.53
51526;BME280;37611;51.794;21.590;2023-02-19T19:14:15;99875.34;;;1.91;86.47
51526;BME280;37611;51.794;21.590;2023-02-19T19:18:16;99873.65;;;1.83;86.14
51526;BME280;37611;51.794;21.590;2023-02-19T19:22:19;99884.10;;;1.76;85.95
51526;BME280;37611;51.794;21.590;2023-02-19T19:26:23;99888.95;;;1.70;85.96
51526;BME280;37611;51.794;21.590;2023-02-19T19:30:25;99893.39;;;1.66;85.44
51526;BME280;37611;51.794;21.590;2023-02-19T19:34:26;99903.52;;;1.61;85.53
51526;BME280;37611;51.794;21.590;2023-02-19T19:38:28;99906.13;;;1.56;85.16
51526;BME280;37611;51.794;21.590;2023-02-19T19:42:30;99907.61;;;1.51;85.30
51526;BME280;37611;51.794;21.590;2023-02-19T19:46:32;99915.70;;;1.49;85.28
51526;BME280;37611;51.794;21.590;2023-02-19T19:50:34;99917.30;;;1.48;85.61
51526;BME280;37611;51.794;21.590;2023-02-19T19:54:35;99922.86;;;1.47;85.13
51526;BME280;37611;51.794;21.590;2023-02-19T19:58:37;99932.83;;;1.48;85.14
51526;BME280;37611;51.794;21.590;2023-02-19T20:02:40;99943.65;;;1.40;84.51
51526;BME280;37611;51.794;21.590;2023-02-19T20:06:42;99950.71;;;1.35;84.45
51526;BME280;37611;51.794;21.590;2023-02-19T20:10:45;99949.02;;;1.29;84.46
51526;BME280;37611;51.794;21.590;2023-02-19T20:14:48;99953.10;;;1.22;84.59
51526;BME280;37611;51.794;21.590;2023-02-19T20:18:49;99954.66;;;1.16;84.92
51526;BME280;37611;51.794;21.590;2023-02-19T20:22:52;99954.10;;;1.11;84.77
51526;BME280;37611;51.794;21.590;2023-02-19T20:26:58;99959.40;;;1.06;84.78
51526;BME280;37611;51.794;21.590;2023-02-19T20:31:16;99960.35;;;1.02;84.55
51526;BME280;37611;51.794;21.590;2023-02-19T20:35:18;99968.30;;;0.95;84.48
51526;BME280;37611;51.794;21.590;2023-02-19T20:39:21;99969.65;;;0.90;84.49
51526;BME280;37611;51.794;21.590;2023-02-19T20:43:23;99967.93;;;0.84;84.00
51526;BME280;37611;51.794;21.590;2023-02-19T20:47:24;99972.54;;;0.82;84.28
51526;BME280;37611;51.794;21.590;2023-02-19T20:51:28;99975.33;;;0.79;83.81
51526;BME280;37611;51.794;21.590;2023-02-19T20:55:30;99983.89;;;0.77;83.94
51526;BME280;37611;51.794;21.590;2023-02-19T20:59:33;99994.46;;;0.73;84.00
51526;BME280;37611;51.794;21.590;2023-02-19T21:03:36;100001.55;;;0.69;84.15
51526;BME280;37611;51.794;21.590;2023-02-19T21:07:38;100006.64;;;0.65;83.95
51526;BME280;37611;51.794;21.590;2023-02-19T21:11:41;100006.73;;;0.63;84.07
51526;BME280;37611;51.794;21.590;2023-02-19T21:15:43;100011.36;;;0.61;84.11
51526;BME280;37611;51.794;21.590;2023-02-19T21:19:45;100014.29;;;0.61;84.16
51526;BME280;37611;51.794;21.590;2023-02-19T21:23:47;100018.73;;;0.61;83.99
51526;BME280;37611;51.794;21.590;2023-02-19T21:27:51;100018.96;;;0.60;83.72
51526;BME280;37611;51.794;21.590;2023-02-19T21:31:55;100026.81;;;0.56;83.75
51526;BME280;37611;51.794;21.590;2023-02-19T21:35:57;100025.41;;;0.53;83.70
51526;BME280;37611;51.794;21.590;2023-02-19T21:39:58;100026.38;;;0.48;83.87
51526;BME280;37611;51.794;21.590;2023-02-19T21:44:02;100034.17;;;0.38;83.67
51526;BME280;37611;51.794;21.590;2023-02-19T21:48:04;100029.05;;;0.32;83.92
51526;BME280;37611;51.794;21.590;2023-02-19T21:52:06;100037.33;;;0.25;84.21
51526;BME280;37611;51.794;21.590;2023-02-19T21:56:09;100045.55;;;0.20;84.15
51526;BME280;37611;51.794;21.590;2023-02-19T22:00:12;100049.30;;;0.15;84.34
51526;BME280;37611;51.794;21.590;2023-02-19T22:04:16;100048.80;;;0.11;84.43
51526;BME280;37611;51.794;21.590;2023-02-19T22:08:18;100043.74;;;0.06;84.47
51526;BME280;37611;51.794;21.590;2023-02-19T22:12:20;100050.23;;;0.04;84.78
51526;BME280;37611;51.794;21.590;2023-02-19T22:16:23;100063.48;;;0.04;85.10
51526;BME280;37611;51.794;21.590;2023-02-19T22:20:26;100066.11;;;0.03;85.36
51526;BME280;37611;51.794;21.590;2023-02-19T22:24:28;100063.64;;;0.04;85.62
51526;BME280;37611;51.794;21.590;2023-02-19T22:28:30;100070.23;;;0.03;85.73
51526;BME280;37611;51.794;21.590;2023-02-19T22:32:32;100076.00;;;0.02;85.69
51526;BME280;37611;51.794;21.590;2023-02-19T22:36:34;100079.62;;;-0.02;85.74
51526;BME280;37611;51.794;21.590;2023-02-19T22:40:40;100080.46;;;-0.05;85.96
51526;BME280;37611;51.794;21.590;2023-02-19T22:44:42;100087.44;;;-0.10;85.99
51526;BME280;37611;51.794;21.590;2023-02-19T22:48:44;100092.34;;;-0.14;86.29
51526;BME280;37611;51.794;21.590;2023-02-19T22:52:46;100091.55;;;-0.19;86.73
51526;BME280;37611;51.794;21.590;2023-02-19T22:56:48;100089.98;;;-0.22;86.84
51526;BME280;37611;51.794;21.590;2023-02-19T23:00:50;100096.96;;;-0.27;87.13
51526;BME280;37611;51.794;21.590;2023-02-19T23:04:52;100102.89;;;-0.28;87.61
51526;BME280;37611;51.794;21.590;2023-02-19T23:08:55;100105.78;;;-0.28;88.35
51526;BME280;37611;51.794;21.590;2023-02-19T23:12:57;100104.71;;;-0.27;88.60
51526;BME280;37611;51.794;21.590;2023-02-19T23:16:59;100106.05;;;-0.26;88.77
51526;BME280;37611;51.794;21.590;2023-02-19T23:21:01;100091.73;;;-0.25;89.47
51526;BME280;37611;51.794;21.590;2023-02-19T23:25:02;100085.39;;;-0.22;89.55
51526;BME280;37611;51.794;21.590;2023-02-19T23:29:04;100075.92;;;-0.22;89.69